Time;durP1;ratioP1;P1;durP2;ratioP2;P2;SDS_P1;SDS_P2;PMS_P1;PMS_P2;Temp;Humidity;BMP_temperature;BMP_pressure;BME280_temperature;BME280_humidity;BME280_pressure;Samples;Min_cycle;Max_cycle;Signal;HPM_P1;HPM_P2
2023/07/27 00:00:35;;;;;;;9.57;4.65;;;13.60;99.90;;;;;;5025861;28;20052;-69
2023/07/27 00:03:02;;;;;;;9.45;5.15;;;13.80;99.90;;;;;;5043766;28;20134;-69
2023/07/27 00:05:27;;;;;;;9.35;4.60;;;13.70;99.90;;;;;;5028411;28;20081;-68
2023/07/27 00:07:53;;;;;;;10.55;5.35;;;13.70;99.90;;;;;;5027543;28;20033;-68
2023/07/27 00:10:20;;;;;;;7.80;5.28;;;13.70;99.90;;;;;;5036471;28;20103;-68
2023/07/27 00:12:46;;;;;;;10.00;4.97;;;;;;;;;;5039624;28;20038;-68
2023/07/27 00:15:12;;;;;;;9.65;5.43;;;;;;;;;;5029490;28;20569;-68
2023/07/27 00:17:38;;;;;;;10.90;5.30;;;;;;;;;;5045795;28;20495;-68
2023/07/27 00:20:04;;;;;;;6.50;4.50;;;;;;;;;;5044356;28;20047;-69
2023/07/27 00:22:46;;;;;;;7.13;5.00;;;;;;;;;;5045480;28;20045;-68
2023/07/27 00:27:41;;;;;;;9.23;5.25;;;;;;;;;;5903534;22;20057;-68
2023/07/27 00:30:07;;;;;;;6.53;4.10;;;13.70;99.90;;;;;;5023970;28;20055;-68
2023/07/27 00:32:33;;;;;;;8.75;4.57;;;;;;;;;;5003930;28;20534;-68
2023/07/27 00:34:59;;;;;;;7.53;4.40;;;;;;;;;;5018610;28;20124;-68
2023/07/27 00:37:25;;;;;;;7.05;4.00;;;13.80;99.90;;;;;;5004197;28;20755;-68
2023/07/27 00:39:51;;;;;;;8.48;5.15;;;;;;;;;;5020802;28;20112;-68
2023/07/27 00:42:17;;;;;;;8.10;5.20;;;;;;;;;;5008497;28;20543;-68
2023/07/27 00:44:43;;;;;;;8.50;5.43;;;;;;;;;;5028184;28;20037;-68
2023/07/27 00:47:08;;;;;;;9.13;5.10;;;13.80;99.90;;;;;;5024624;28;20099;-68
2023/07/27 00:49:34;;;;;;;7.70;4.75;;;13.70;99.90;;;;;;5007262;28;20063;-69
2023/07/27 00:52:05;;;;;;;7.07;4.43;;;13.90;99.90;;;;;;5001537;28;20044;-68
2023/07/27 00:54:31;;;;;;;8.43;5.03;;;13.80;99.90;;;;;;5012908;28;20065;-68
2023/07/27 00:56:57;;;;;;;8.63;4.93;;;;;;;;;;4999190;28;20442;-68
2023/07/27 00:59:23;;;;;;;10.40;5.78;;;;;;;;;;5011357;28;20037;-68
2023/07/27 01:01:49;;;;;;;8.65;5.35;;;;;;;;;;4995563;28;20056;-69
2023/07/27 01:04:15;;;;;;;8.48;4.60;;;;;;;;;;5028193;28;20054;-68
2023/07/27 01:06:41;;;;;;;13.75;5.22;;;;;;;;;;5029570;28;20099;-68
2023/07/27 01:09:07;;;;;;;9.27;5.45;;;;;;;;;;5029192;28;20671;-69
2023/07/27 01:11:33;;;;;;;9.43;4.65;;;;;;;;;;5004006;28;20054;-68
2023/07/27 01:14:37;;;;;;;6.82;4.80;;;14.00;99.90;;;;;;5029932;28;20121;-68
2023/07/27 01:17:42;;;;;;;8.40;4.60;;;14.00;99.90;;;;;;4999638;28;20046;-68
2023/07/27 01:20:26;;;;;;;7.38;4.53;;;14.10;99.90;;;;;;5001668;28;20046;-68
2023/07/27 01:23:16;;;;;;;7.85;5.00;;;14.20;99.90;;;;;;5010261;28;20140;-69
2023/07/27 01:26:04;;;;;;;8.88;4.40;;;;;;;;;;5002400;28;20148;-69
2023/07/27 01:28:48;;;;;;;9.00;4.70;;;;;;;;;;5023101;28;20091;-68
2023/07/27 01:31:20;;;;;;;7.07;4.75;;;13.90;99.90;;;;;;5020419;28;20045;-69
2023/07/27 01:33:49;;;;;;;6.85;4.57;;;;;;;;;;5028256;28;20029;-69
2023/07/27 01:36:21;;;;;;;16.23;5.53;;;14.20;99.90;;;;;;5029870;28;20124;-68
2023/07/27 01:38:49;;;;;;;10.98;5.50;;;14.30;99.90;;;;;;5020703;28;20052;-68
2023/07/27 01:41:16;;;;;;;6.68;4.88;;;14.10;99.90;;;;;;5027792;28;20119;-69
2023/07/27 01:43:43;;;;;;;11.80;5.65;;;;;;;;;;4998061;28;20464;-69
2023/07/27 01:46:11;;;;;;;10.48;5.28;;;14.20;99.90;;;;;;5001126;28;20156;-68
2023/07/27 01:48:38;;;;;;;7.55;4.55;;;;;;;;;;5019956;28;20050;-69
2023/07/27 01:51:04;;;;;;;7.57;5.10;;;;;;;;;;5026345;28;20033;-69
2023/07/27 01:53:30;;;;;;;7.93;4.47;;;14.30;99.90;;;;;;5004959;28;20046;-68
2023/07/27 01:55:57;;;;;;;8.23;5.55;;;;;;;;;;5006439;28;20041;-68
2023/07/27 01:58:24;;;;;;;9.27;5.38;;;14.10;99.90;;;;;;5006261;28;20042;-68
2023/07/27 02:00:50;;;;;;;8.65;5.10;;;14.00;99.90;;;;;;4984214;28;20057;-69
2023/07/27 02:03:16;;;;;;;8.02;4.80;;;14.10;99.90;;;;;;5025937;28;20083;-68
2023/07/27 02:05:42;;;;;;;8.93;5.00;;;;;;;;;;5015797;28;20053;-68
2023/07/27 02:08:27;;;;;;;9.05;5.20;;;;;;;;;;5023025;28;20045;-69
2023/07/27 02:11:01;;;;;;;10.73;5.65;;;14.20;99.90;;;;;;5024060;28;20120;-68
2023/07/27 02:13:45;;;;;;;9.38;5.72;;;13.90;99.90;;;;;;5016368;28;20109;-68
2023/07/27 02:16:33;;;;;;;8.73;5.13;;;;;;;;;;5012535;28;20084;-69
2023/07/27 02:19:01;;;;;;;9.63;5.47;;;13.90;99.90;;;;;;5021054;28;20051;-69
2023/07/27 02:21:29;;;;;;;9.27;5.68;;;;;;;;;;5024335;28;20491;-69
2023/07/27 02:23:55;;;;;;;9.23;5.40;;;14.10;99.90;;;;;;5021400;28;20145;-69
2023/07/27 02:26:22;;;;;;;9.13;5.78;;;;;;;;;;5078757;22;20052;-69
2023/07/27 02:28:48;;;;;;;8.80;5.22;;;;;;;;;;5022950;28;20112;-69
2023/07/27 02:31:14;;;;;;;10.38;5.93;;;;;;;;;;5015002;28;20431;-69
2023/07/27 02:33:40;;;;;;;8.88;5.20;;;;;;;;;;5026710;28;20048;-69
2023/07/27 02:36:06;;;;;;;9.07;5.70;;;;;;;;;;5033816;28;20099;-68
2023/07/27 02:38:31;;;;;;;8.15;5.32;;;14.10;99.90;;;;;;5028377;28;20044;-69
2023/07/27 02:40:57;;;;;;;8.13;5.40;;;;;;;;;;5011064;28;21046;-69
2023/07/27 02:43:24;;;;;;;8.27;5.82;;;14.20;99.90;;;;;;5010460;28;20052;-69
2023/07/27 02:45:50;;;;;;;10.35;5.38;;;;;;;;;;5010920;28;20047;-69
2023/07/27 02:48:17;;;;;;;11.23;5.13;;;;;;;;;;5029255;28;20414;-69
2023/07/27 02:50:50;;;;;;;8.80;5.50;;;14.00;99.90;;;;;;5028837;28;20037;-69
2023/07/27 02:53:16;;;;;;;9.82;5.68;;;14.00;99.90;;;;;;5009071;28;20041;-68
2023/07/27 02:55:42;;;;;;;9.00;4.80;;;;;;;;;;5028325;28;20033;-69
2023/07/27 02:58:08;;;;;;;10.32;6.50;;;14.00;99.90;;;;;;5010362;28;20045;-69
2023/07/27 03:00:34;;;;;;;9.63;5.47;;;;;;;;;;5012729;28;20065;-68
2023/07/27 03:03:02;;;;;;;9.27;5.78;;;;;;;;;;5013946;28;20048;-69
2023/07/27 03:05:28;;;;;;;9.55;6.40;;;;;;;;;;5013556;28;20143;-69
2023/07/27 03:07:54;;;;;;;13.10;5.72;;;;;;;;;;5028739;28;20511;-68
2023/07/27 03:10:20;;;;;;;7.75;6.00;;;;;;;;;;5010336;28;20033;-68
2023/07/27 03:12:46;;;;;;;9.93;5.35;;;;;;;;;;5028433;28;20038;-68
2023/07/27 03:17:42;;;;;;;10.35;6.50;;;;;;;;;;5738118;22;20048;-68
2023/07/27 03:20:08;;;;;;;12.35;6.65;;;13.80;99.90;;;;;;5047535;28;20233;-68
2023/07/27 03:22:34;;;;;;;10.93;6.75;;;;;;;;;;5016649;28;20100;-68
2023/07/27 03:25:00;;;;;;;11.15;6.68;;;;;;;;;;5043678;28;20136;-69
2023/07/27 03:27:26;;;;;;;11.63;7.07;;;;;;;;;;5047682;28;20045;-69
2023/07/27 03:29:52;;;;;;;12.98;7.47;;;;;;;;;;5028624;28;20055;-68
2023/07/27 03:32:18;;;;;;;10.43;6.82;;;13.70;99.90;;;;;;5047479;28;20479;-69
2023/07/27 03:34:44;;;;;;;12.27;7.88;;;;;;;;;;5043306;28;20037;-69
2023/07/27 03:40:46;;;;;;;14.32;8.65;;;;;;;;;;5012909;28;20359;-69
2023/07/27 03:43:27;;;;;;;10.95;7.55;;;;;;;;;;5023872;28;20522;-70
2023/07/27 03:45:54;;;;;;;12.70;8.20;;;;;;;;;;5008083;28;20041;-69
2023/07/27 03:48:19;;;;;;;12.70;8.45;;;;;;;;;;5027301;28;20045;-69
2023/07/27 03:54:14;;;;;;;11.43;7.00;;;;;;;;;;5008369;28;20077;-69
2023/07/27 03:56:40;;;;;;;14.52;8.55;;;;;;;;;;5024135;28;20041;-70
2023/07/27 03:59:06;;;;;;;14.82;8.95;;;;;;;;;;5022531;28;20087;-69
2023/07/27 04:01:31;;;;;;;12.82;9.10;;;;;;;;;;5025614;28;20491;-69
2023/07/27 04:07:21;;;;;;;15.50;9.00;;;;;;;;;;5019464;28;20040;-76
2023/07/27 04:09:47;;;;;;;12.65;9.18;;;;;;;;;;4985911;28;20798;-68
2023/07/27 04:12:13;;;;;;;18.00;10.02;;;;;;;;;;5018570;28;20033;-67
2023/07/27 04:17:42;;;;;;;14.85;9.63;;;;;;;;;;5167722;22;20056;-67
2023/07/27 04:20:09;;;;;;;15.52;9.57;;;;;;;;;;5019589;28;20072;-71
2023/07/27 04:22:35;;;;;;;13.77;8.75;;;;;;;;;;5021677;28;20790;-71
2023/07/27 04:25:01;;;;;;;16.98;9.73;;;;;;;;;;5021806;28;20048;-73
2023/07/27 04:27:27;;;;;;;15.27;9.70;;;;;;;;;;5010620;28;20586;-73
2023/07/27 04:33:15;;;;;;;17.65;9.50;;;;;;;;;;5026874;28;20044;-76
2023/07/27 04:38:17;;;;;;;20.15;11.52;;;;;;;;;;5383382;22;20084;-68
2023/07/27 04:40:43;;;;;;;20.67;10.90;;;;;;;;;;5006240;28;20123;-68
2023/07/27 04:56:30;;;;;;;;;;;13.50;99.90;;;;;;5553827;22;20049;-89
2023/07/27 04:58:56;;;;;;;16.02;9.57;;;;;;;;;;5013539;28;20374;-88
2023/07/27 05:01:22;;;;;;;20.42;11.07;;;;;;;;;;5007487;28;20045;-88
2023/07/27 05:03:48;;;;;;;21.55;11.98;;;;;;;;;;5020743;28;20041;-89
2023/07/27 05:06:14;;;;;;;16.15;10.00;;;;;;;;;;4989753;28;20042;-90
2023/07/27 05:08:40;;;;;;;18.20;9.88;;;;;;;;;;5010268;28;20052;-89
2023/07/27 05:11:06;;;;;;;18.27;9.77;;;;;;;;;;5000715;28;20068;-89
2023/07/27 05:13:33;;;;;;;17.48;10.82;;;;;;;;;;5010855;28;20530;-88
2023/07/27 05:15:59;;;;;;;19.83;9.63;;;;;;;;;;5009461;28;20041;-88
2023/07/27 05:18:25;;;;;;;16.58;10.95;;;;;;;;;;5011107;28;20037;-90
2023/07/27 05:20:51;;;;;;;14.15;9.30;;;;;;;;;;5009592;28;20410;-88
2023/07/27 05:23:17;;;;;;;17.48;10.32;;;;;;;;;;5003531;28;20046;-90
2023/07/27 05:25:43;;;;;;;18.00;10.75;;;;;;;;;;5011118;28;20052;-89
2023/07/27 05:28:09;;;;;;;16.55;9.93;;;;;;;;;;5003952;28;20799;-89
2023/07/27 05:30:35;;;;;;;15.85;9.30;;;;;;;;;;5005867;28;20136;-89
2023/07/27 05:33:01;;;;;;;16.90;9.68;;;;;;;;;;5010052;28;20144;-90
2023/07/27 05:35:27;;;;;;;21.35;9.93;;;;;;;;;;5007972;28;20518;-90
2023/07/27 05:37:53;;;;;;;15.85;9.45;;;;;;;;;;5026502;28;20045;-91
2023/07/27 05:40:19;;;;;;;14.52;9.18;;;;;;;;;;4994380;28;20041;-89
2023/07/27 05:42:45;;;;;;;14.20;9.18;;;;;;;;;;4993917;28;20049;-88
2023/07/27 05:45:11;;;;;;;12.30;7.93;;;;;;;;;;5022369;28;20068;-89
2023/07/27 05:47:37;;;;;;;14.93;8.93;;;;;;;;;;4991244;28;20049;-90
2023/07/27 05:50:03;;;;;;;13.52;7.63;;;13.80;99.90;;;;;;4994411;28;20045;-89
2023/07/27 05:52:29;;;;;;;15.00;8.85;;;;;;;;;;5027208;28;20088;-87
2023/07/27 05:54:55;;;;;;;14.18;8.07;;;;;;;;;;4990331;28;20041;-89
2023/07/27 05:57:21;;;;;;;14.63;8.98;;;;;;;;;;4986249;28;20561;-91
2023/07/27 05:59:47;;;;;;;12.57;8.38;;;;;;;;;;4992513;28;20091;-90
2023/07/27 06:02:13;;;;;;;15.13;9.40;;;;;;;;;;4994447;28;20124;-91
2023/07/27 06:04:39;;;;;;;12.07;8.40;;;;;;;;;;4995153;28;20041;-88
2023/07/27 06:07:05;;;;;;;14.48;9.35;;;;;;;;;;5007562;28;20046;-90
2023/07/27 06:09:32;;;;;;;13.95;7.65;;;;;;;;;;4987751;28;20049;-91
2023/07/27 06:11:58;;;;;;;15.07;9.35;;;;;;;;;;4989396;28;20045;-90
2023/07/27 06:14:24;;;;;;;15.57;9.82;;;;;;;;;;5019757;28;20806;-88
2023/07/27 06:16:50;;;;;;;13.30;8.35;;;;;;;;;;5005521;28;20112;-88
2023/07/27 06:19:16;;;;;;;13.70;9.23;;;;;;;;;;5023493;28;20423;-89
2023/07/27 06:21:42;;;;;;;14.90;8.68;;;;;;;;;;4992063;28;20092;-86
2023/07/27 06:24:09;;;;;;;13.00;9.20;;;;;;;;;;5008095;28;20049;-91
2023/07/27 06:26:35;;;;;;;12.50;8.35;;;;;;;;;;5006607;28;20045;-91
2023/07/27 06:29:01;;;;;;;15.50;8.93;;;;;;;;;;5002589;28;20406;-89
2023/07/27 06:31:27;;;;;;;13.73;8.85;;;;;;;;;;4988108;28;20044;-88
2023/07/27 06:33:53;;;;;;;14.65;8.65;;;;;;;;;;4991545;28;20475;-89
2023/07/27 06:36:19;;;;;;;15.68;9.00;;;;;;;;;;5008738;28;20047;-90
2023/07/27 06:38:45;;;;;;;17.02;7.53;;;;;;;;;;5010155;28;20056;-91
2023/07/27 06:41:11;;;;;;;14.38;8.07;;;;;;;;;;4992338;28;20045;-91
2023/07/27 06:43:37;;;;;;;17.08;7.80;;;;;;;;;;4993304;28;20052;-91
2023/07/27 06:46:03;;;;;;;13.52;7.85;;;;;;;;;;4988948;28;20095;-91
2023/07/27 06:48:29;;;;;;;12.18;8.18;;;;;;;;;;5017566;28;20571;-90
2023/07/27 06:50:57;;;;;;;12.55;8.32;;;;;;;;;;4993860;28;20095;-90
2023/07/27 06:53:23;;;;;;;12.50;7.93;;;;;;;;;;5000554;28;20045;-90
2023/07/27 06:55:49;;;;;;;12.68;8.70;;;;;;;;;;4990395;28;20088;-92
2023/07/27 06:58:15;;;;;;;14.50;8.75;;;;;;;;;;4987948;28;20393;-91
2023/07/27 07:00:44;;;;;;;16.83;9.65;;;;;;;;;;5002701;28;20059;-91
2023/07/27 07:03:29;;;;;;;13.88;8.82;;;;;;;;;;4982538;28;20065;-90
2023/07/27 07:05:55;;;;;;;13.88;9.00;;;;;;;;;;4967829;28;20589;-91
2023/07/27 07:08:22;;;;;;;13.55;9.57;;;14.80;99.90;;;;;;4966221;28;20056;-91
2023/07/27 07:10:48;;;;;;;14.88;9.63;;;;;;;;;;4947775;28;20137;-91
2023/07/27 07:13:14;;;;;;;14.40;9.40;;;;;;;;;;4968513;28;20094;-90
2023/07/27 07:15:42;;;;;;;15.02;9.35;;;;;;;;;;4946069;28;20050;-90
2023/07/27 07:18:14;;;;;;;12.10;8.90;;;;;;;;;;4969448;28;20058;-90
2023/07/27 07:20:41;;;;;;;15.07;9.13;;;;;;;;;;4963897;28;20047;-89
2023/07/27 07:23:06;;;;;;;15.25;9.13;;;;;;;;;;4947848;28;20108;-88
2023/07/27 07:25:32;;;;;;;13.77;9.05;;;;;;;;;;4980486;28;20240;-89
2023/07/27 07:27:58;;;;;;;10.93;7.85;;;;;;;;;;4966180;28;20587;-88
2023/07/27 07:30:24;;;;;;;12.20;8.50;;;;;;;;;;4967017;28;20046;-88
2023/07/27 07:32:51;;;;;;;13.05;9.20;;;;;;;;;;4962714;28;20544;-87
2023/07/27 07:35:18;;;;;;;11.13;7.88;;;;;;;;;;4984299;28;20053;-89
2023/07/27 07:37:44;;;;;;;12.77;8.80;;;;;;;;;;5007250;28;20099;-88
2023/07/27 07:40:10;;;;;;;12.88;7.88;;;;;;;;;;4989891;28;20052;-89
2023/07/27 07:42:36;;;;;;;13.57;9.25;;;;;;;;;;5004397;28;20052;-89
2023/07/27 07:45:02;;;;;;;10.68;7.57;;;;;;;;;;5005236;28;20160;-89
2023/07/27 07:47:28;;;;;;;11.77;8.60;;;;;;;;;;5005605;28;20042;-88
2023/07/27 07:49:54;;;;;;;10.98;7.97;;;;;;;;;;5005085;28;20403;-89
2023/07/27 07:52:20;;;;;;;11.32;7.60;;;;;;;;;;4993345;28;20041;-89
2023/07/27 07:54:46;;;;;;;10.27;6.97;;;;;;;;;;5010494;28;20044;-88
2023/07/27 07:57:12;;;;;;;9.82;7.07;;;15.10;99.90;;;;;;5008949;28;20103;-89
2023/07/27 07:59:38;;;;;;;11.43;8.05;;;;;;;;;;5004239;28;20434;-88
2023/07/27 08:02:04;;;;;;;10.75;7.15;;;;;;;;;;5009975;28;20349;-88
2023/07/27 08:04:30;;;;;;;9.40;7.07;;;;;;;;;;4994089;28;20041;-89
2023/07/27 08:06:56;;;;;;;8.93;7.18;;;;;;;;;;5009882;28;20049;-89
2023/07/27 08:09:22;;;;;;;9.10;6.25;;;;;;;;;;5007450;28;20083;-89
2023/07/27 08:11:48;;;;;;;8.70;6.78;;;;;;;;;;5019621;28;20048;-90
2023/07/27 08:14:14;;;;;;;10.00;6.63;;;;;;;;;;5007863;28;20041;-89
2023/07/27 08:16:40;;;;;;;5.38;4.80;;;;;;;;;;4997252;28;20050;-89
2023/07/27 08:19:06;;;;;;;6.60;4.93;;;;;;;;;;4986872;28;20045;-89
2023/07/27 08:21:32;;;;;;;9.93;5.82;;;;;;;;;;4988480;28;20103;-88
2023/07/27 08:23:58;;;;;;;7.28;5.00;;;;;;;;;;4987756;28;20414;-89
2023/07/27 08:26:24;;;;;;;6.35;5.30;;;;;;;;;;5028146;28;20137;-89
2023/07/27 08:28:50;;;;;;;6.72;4.97;;;15.10;99.90;;;;;;5024126;28;20088;-89
2023/07/27 08:31:16;;;;;;;6.97;4.85;;;;;;;;;;4992107;28;20053;-88
2023/07/27 08:33:42;;;;;;;7.68;5.25;;;;;;;;;;5007786;28;20045;-88
2023/07/27 08:36:09;;;;;;;6.88;4.38;;;;;;;;;;4983912;28;20041;-89
2023/07/27 08:38:35;;;;;;;5.43;4.43;;;;;;;;;;5022447;28;20053;-89
2023/07/27 08:41:02;;;;;;;6.85;4.40;;;;;;;;;;4994153;28;20049;-88
2023/07/27 08:43:28;;;;;;;6.75;4.40;;;15.20;99.90;;;;;;5009409;28;20510;-89
2023/07/27 08:45:54;;;;;;;8.70;5.05;;;;;;;;;;4993671;28;20091;-89
2023/07/27 08:48:20;;;;;;;6.10;4.63;;;;;;;;;;5006106;28;20046;-86
2023/07/27 08:50:48;;;;;;;7.45;4.95;;;;;;;;;;4989167;28;20051;-86
2023/07/27 08:53:15;;;;;;;6.15;4.32;;;;;;;;;;4997599;28;20041;-88
2023/07/27 08:55:41;;;;;;;7.20;4.70;;;;;;;;;;4998698;28;20112;-88
2023/07/27 08:58:08;;;;;;;9.02;4.70;;;;;;;;;;5019677;28;20041;-84
2023/07/27 09:00:34;;;;;;;6.93;4.97;;;;;;;;;;5006550;28;20049;-86
2023/07/27 09:03:00;;;;;;;6.13;4.28;;;;;;;;;;4987030;28;20045;-88
2023/07/27 09:05:55;;;;;;;5.07;3.78;;;15.60;99.90;;;;;;5003655;28;20095;-87
2023/07/27 09:08:21;;;;;;;7.10;5.05;;;;;;;;;;4989492;28;20037;-88
2023/07/27 09:10:47;;;;;;;6.75;4.53;;;;;;;;;;4987598;28;20057;-88
2023/07/27 09:13:13;;;;;;;5.40;4.38;;;;;;;;;;4985522;28;20033;-88
2023/07/27 09:15:44;;;;;;;6.03;4.38;;;15.60;99.90;;;;;;5004515;28;20057;-88
2023/07/27 09:18:12;;;;;;;6.32;5.25;;;16.00;99.90;;;;;;5005718;28;20145;-84
2023/07/27 09:20:42;;;;;;;5.05;3.60;;;15.90;99.90;;;;;;5022542;28;20140;-90
2023/07/27 09:23:08;;;;;;;4.95;3.70;;;;;;;;;;5025440;28;20318;-89
2023/07/27 09:25:39;;;;;;;5.78;4.55;;;;;;;;;;4976685;28;20049;-89
2023/07/27 09:28:05;;;;;;;4.38;3.92;;;;;;;;;;4988907;28;20173;-90
2023/07/27 09:30:35;;;;;;;6.22;4.05;;;;;;;;;;4999739;28;20608;-90
2023/07/27 09:33:03;;;;;;;4.13;3.72;;;15.90;99.90;;;;;;5003670;28;20040;-90
2023/07/27 09:35:29;;;;;;;5.22;3.88;;;;;;;;;;4988933;28;20489;-90
2023/07/27 09:37:55;;;;;;;4.20;3.42;;;;;;;;;;4983569;28;20398;-90
2023/07/27 09:40:24;;;;;;;4.10;3.22;;;15.80;99.90;;;;;;4981799;28;20048;-90
2023/07/27 09:42:50;;;;;;;4.72;3.58;;;;;;;;;;4989044;28;20045;-89
2023/07/27 09:45:16;;;;;;;4.07;3.67;;;;;;;;;;4974025;28;20045;-90
2023/07/27 09:47:42;;;;;;;5.78;3.95;;;15.90;99.90;;;;;;4984629;28;20041;-89
2023/07/27 09:50:09;;;;;;;4.38;3.72;;;;;;;;;;4986293;28;20049;-89
2023/07/27 09:52:37;;;;;;;4.22;3.55;;;16.10;99.90;;;;;;5015958;28;20045;-89
2023/07/27 09:55:03;;;;;;;5.53;4.40;;;16.10;99.90;;;;;;4981515;28;20030;-89
2023/07/27 09:57:29;;;;;;;4.72;3.95;;;;;;;;;;5003130;28;20294;-88
2023/07/27 09:59:55;;;;;;;7.32;4.78;;;16.10;99.90;;;;;;5005732;28;20139;-88
2023/07/27 10:02:22;;;;;;;5.53;4.47;;;16.00;99.90;;;;;;4988261;28;20052;-88
2023/07/27 10:04:51;;;;;;;4.55;4.15;;;16.00;99.90;;;;;;4990620;28;20090;-89
2023/07/27 10:07:19;;;;;;;4.93;4.13;;;16.10;99.90;;;;;;4984998;28;20056;-85
2023/07/27 10:09:48;;;;;;;4.88;4.38;;;16.20;99.90;;;;;;5003459;28;20041;-85
2023/07/27 10:12:27;;;;;;;5.65;4.80;;;16.20;99.90;;;;;;5006615;28;20179;-85
2023/07/27 10:15:26;;;;;;;5.28;4.78;;;16.30;99.90;;;;;;5002183;28;20034;-85
2023/07/27 10:17:55;;;;;;;7.13;5.10;;;16.30;99.90;;;;;;4995698;28;20099;-85
2023/07/27 10:20:28;;;;;;;5.47;4.97;;;16.40;99.90;;;;;;4984905;28;20111;-85
2023/07/27 10:23:12;;;;;;;5.57;5.07;;;16.40;99.90;;;;;;5001005;28;20120;-85
2023/07/27 10:25:54;;;;;;;5.38;4.88;;;16.40;99.90;;;;;;5001024;28;20076;-85
2023/07/27 10:28:49;;;;;;;5.78;5.28;;;16.60;99.90;;;;;;4983450;28;20049;-85
2023/07/27 10:31:24;;;;;;;7.00;6.00;;;16.50;99.90;;;;;;4985902;28;20057;-85
2023/07/27 10:33:56;;;;;;;8.02;5.72;;;16.60;99.90;;;;;;5003718;28;20056;-85
2023/07/27 10:36:26;;;;;;;8.25;5.38;;;16.50;99.90;;;;;;4998168;28;20050;-85
2023/07/27 10:38:53;;;;;;;8.25;5.57;;;16.70;99.90;;;;;;4979555;28;20087;-85
2023/07/27 10:41:25;;;;;;;8.63;6.20;;;16.80;99.90;;;;;;4982067;28;20049;-85
2023/07/27 10:44:14;;;;;;;7.85;6.18;;;16.60;99.90;;;;;;5001406;28;20129;-85
2023/07/27 10:46:47;;;;;;;7.20;6.40;;;16.80;99.90;;;;;;5001807;28;20048;-85
2023/07/27 10:49:17;;;;;;;7.07;6.35;;;16.70;99.90;;;;;;5002438;28;20049;-86
2023/07/27 10:51:45;;;;;;;6.93;6.22;;;17.70;99.90;;;;;;4987166;28;20045;-85
2023/07/27 10:54:12;;;;;;;7.03;6.03;;;16.80;99.90;;;;;;5003285;28;20068;-85
2023/07/27 10:56:40;;;;;;;7.68;6.05;;;16.80;99.90;;;;;;5001721;28;20037;-85
2023/07/27 10:59:07;;;;;;;7.00;6.07;;;16.90;99.90;;;;;;4983277;28;20049;-85
2023/07/27 11:01:33;;;;;;;8.55;7.20;;;17.00;99.90;;;;;;4982257;28;20472;-85
2023/07/27 11:03:59;;;;;;;8.90;6.93;;;17.00;99.90;;;;;;4996485;28;20148;-84
2023/07/27 11:06:28;;;;;;;8.20;6.88;;;17.00;99.90;;;;;;5001477;28;20037;-84
2023/07/27 11:08:56;;;;;;;9.20;7.90;;;17.10;99.90;;;;;;4998719;28;20053;-85
2023/07/27 11:11:24;;;;;;;10.45;8.27;;;17.30;99.90;;;;;;5019178;28;20052;-85
2023/07/27 11:13:50;;;;;;;11.40;8.80;;;17.40;99.90;;;;;;5002457;28;20053;-85
2023/07/27 11:16:16;;;;;;;8.95;7.43;;;17.10;99.90;;;;;;4985603;28;20039;-84
2023/07/27 11:18:42;;;;;;;10.02;7.53;;;17.20;99.90;;;;;;5002117;28;20037;-84
2023/07/27 11:21:08;;;;;;;9.02;7.95;;;17.30;99.90;;;;;;4998682;28;20578;-84
2023/07/27 11:23:46;;;;;;;8.68;7.38;;;17.40;99.90;;;;;;4985227;28;20177;-84
2023/07/27 11:26:12;;;;;;;8.75;7.85;;;17.30;99.90;;;;;;5003788;28;20521;-84
2023/07/27 11:28:39;;;;;;;7.80;6.65;;;17.40;99.90;;;;;;4982695;28;20048;-84
2023/07/27 11:31:08;;;;;;;7.80;7.00;;;17.40;99.90;;;;;;4987571;28;20053;-85
2023/07/27 11:33:38;;;;;;;8.30;7.20;;;17.60;99.90;;;;;;5002867;28;20063;-84
2023/07/27 11:36:07;;;;;;;8.32;7.32;;;17.60;99.90;;;;;;4999710;28;20128;-84
2023/07/27 11:38:33;;;;;;;8.70;6.93;;;;;;;;;;4978956;28;20050;-84
2023/07/27 11:40:59;;;;;;;7.43;6.70;;;17.50;99.90;;;;;;4982872;28;20062;-84
2023/07/27 11:43:25;;;;;;;8.30;6.30;;;;;;;;;;4999620;28;20042;-84
2023/07/27 11:45:55;;;;;;;8.88;6.93;;;17.50;99.90;;;;;;5000550;28;20042;-84
2023/07/27 11:48:28;;;;;;;7.05;6.38;;;17.40;99.90;;;;;;4991391;28;20427;-84
2023/07/27 11:50:58;;;;;;;6.55;5.85;;;17.50;99.90;;;;;;4977697;28;20042;-84
2023/07/27 11:53:28;;;;;;;7.72;6.72;;;17.50;99.90;;;;;;4990623;28;20587;-85
2023/07/27 11:55:55;;;;;;;7.50;6.53;;;17.80;99.90;;;;;;5021980;28;20539;-85
2023/07/27 11:58:27;;;;;;;6.82;6.13;;;17.60;99.90;;;;;;4978799;28;20530;-84
2023/07/27 12:00:55;;;;;;;6.05;5.45;;;17.50;99.90;;;;;;4985488;28;20056;-85
2023/07/27 12:03:23;;;;;;;7.53;6.78;;;17.40;99.90;;;;;;5004763;28;20041;-85
2023/07/27 12:05:53;;;;;;;7.55;6.72;;;17.50;99.90;;;;;;4978114;28;20557;-84
2023/07/27 12:08:19;;;;;;;9.43;7.03;;;;;;;;;;4999977;28;20490;-84
2023/07/27 12:10:57;;;;;;;6.95;5.93;;;17.60;99.90;;;;;;4981882;28;20139;-84
2023/07/27 12:13:24;;;;;;;8.77;7.05;;;17.40;99.90;;;;;;5000108;28;20048;-84
2023/07/27 12:16:04;;;;;;;10.20;6.75;;;17.70;99.90;;;;;;5003407;28;20049;-84
2023/07/27 12:18:30;;;;;;;8.02;6.30;;;17.50;99.90;;;;;;4980144;28;20052;-84
2023/07/27 12:20:57;;;;;;;6.18;5.28;;;17.40;99.90;;;;;;5006726;28;20033;-84
2023/07/27 12:23:24;;;;;;;6.68;5.97;;;17.60;99.90;;;;;;4984547;28;20049;-84
2023/07/27 12:25:50;;;;;;;6.80;5.00;;;17.70;99.90;;;;;;4979213;28;20049;-84
2023/07/27 12:28:17;;;;;;;5.75;5.10;;;;;;;;;;4998652;28;20459;-84
2023/07/27 12:30:43;;;;;;;6.97;4.55;;;17.60;99.90;;;;;;5024817;28;20053;-84
2023/07/27 12:33:10;;;;;;;6.63;5.63;;;17.70;99.90;;;;;;4977931;28;20044;-84
2023/07/27 12:35:35;;;;;;;5.93;5.05;;;17.70;99.90;;;;;;5020518;28;20049;-84
2023/07/27 12:38:02;;;;;;;5.65;5.05;;;;;;;;;;5004758;28;20392;-84
2023/07/27 12:40:27;;;;;;;7.00;5.75;;;17.80;99.90;;;;;;5027175;28;20049;-84
2023/07/27 12:42:54;;;;;;;7.72;5.47;;;17.80;99.90;;;;;;5007199;28;20142;-84
2023/07/27 12:45:20;;;;;;;7.50;5.47;;;;;;;;;;5020113;28;20357;-84
2023/07/27 12:47:49;;;;;;;6.95;5.75;;;18.00;99.90;;;;;;4986330;28;20495;-84
2023/07/27 12:50:15;;;;;;;6.10;5.50;;;18.30;99.90;;;;;;5022559;28;20362;-85
2023/07/27 12:52:41;;;;;;;8.70;5.35;;;18.10;99.90;;;;;;4984116;28;20068;-84
2023/07/27 12:55:12;;;;;;;6.75;5.80;;;18.30;99.90;;;;;;4986371;28;20140;-85
2023/07/27 12:57:39;;;;;;;6.32;5.55;;;18.20;99.90;;;;;;5027582;28;20064;-85
2023/07/27 13:00:08;;;;;;;6.05;4.75;;;18.30;99.90;;;;;;5005577;28;20099;-85
2023/07/27 13:02:36;;;;;;;10.50;6.13;;;18.30;99.90;;;;;;5004695;28;20867;-84
2023/07/27 13:05:03;;;;;;;6.25;5.20;;;18.20;99.90;;;;;;5024398;28;20056;-84
2023/07/27 13:07:29;;;;;;;7.53;4.93;;;;;;;;;;5010414;28;20060;-84
2023/07/27 13:09:56;;;;;;;4.72;4.00;;;;;;;;;;4990187;28;20472;-84
2023/07/27 13:12:21;;;;;;;7.93;4.38;;;18.40;99.90;;;;;;5002529;28;20042;-85
2023/07/27 13:14:48;;;;;;;7.90;4.57;;;;;;;;;;5007153;28;20041;-84
2023/07/27 13:17:14;;;;;;;6.57;4.60;;;;;;;;;;5022717;28;20045;-84
2023/07/27 13:19:40;;;;;;;5.75;4.70;;;18.30;99.90;;;;;;5021076;28;20049;-85
2023/07/27 13:22:06;;;;;;;5.43;4.22;;;18.40;99.90;;;;;;4989683;28;20533;-84
2023/07/27 13:24:31;;;;;;;3.28;2.90;;;18.40;99.90;;;;;;5000029;28;20049;-85
2023/07/27 13:26:57;;;;;;;3.60;3.13;;;18.30;99.90;;;;;;5000463;28;20124;-84
2023/07/27 13:29:23;;;;;;;3.88;2.90;;;18.60;99.90;;;;;;5009927;28;20087;-85
2023/07/27 13:31:49;;;;;;;3.60;2.50;;;;;;;;;;5024603;28;20049;-85
2023/07/27 13:34:15;;;;;;;3.72;2.40;;;;;;;;;;4990384;28;20223;-85
2023/07/27 13:36:40;;;;;;;3.40;2.30;;;18.70;99.90;;;;;;5010275;28;20042;-84
2023/07/27 13:39:06;;;;;;;2.03;1.48;;;;;;;;;;5023706;28;20052;-85
2023/07/27 13:41:32;;;;;;;1.65;1.42;;;18.60;99.90;;;;;;5025827;28;20392;-85
2023/07/27 13:43:58;;;;;;;5.90;1.48;;;;;;;;;;4991565;28;20043;-84
2023/07/27 13:46:24;;;;;;;1.23;1.00;;;;;;;;;;5006732;28;20144;-84
2023/07/27 13:48:50;;;;;;;2.63;1.52;;;18.60;99.90;;;;;;5005382;28;20049;-84
2023/07/27 13:51:15;;;;;;;2.30;1.55;;;18.60;99.90;;;;;;5006380;28;20124;-84
2023/07/27 13:53:41;;;;;;;4.85;2.17;;;;;;;;;;5009271;28;20142;-84
2023/07/27 13:56:07;;;;;;;2.40;2.05;;;18.70;99.90;;;;;;4986564;28;20042;-84
2023/07/27 13:58:33;;;;;;;3.08;2.67;;;18.80;99.90;;;;;;5003555;28;20061;-86
2023/07/27 14:00:58;;;;;;;2.38;2.03;;;18.60;99.90;;;;;;5000533;28;20053;-85
2023/07/27 14:03:24;;;;;;;4.07;2.53;;;;;;;;;;4978760;28;20045;-84
2023/07/27 14:05:50;;;;;;;1.88;1.67;;;;;;;;;;5001642;28;20046;-84
2023/07/27 14:08:16;;;;;;;2.60;2.20;;;;;;;;;;5002941;28;20179;-85
2023/07/27 14:10:42;;;;;;;3.67;2.58;;;;;;;;;;5016597;28;20045;-85
2023/07/27 14:13:08;;;;;;;2.85;2.65;;;;;;;;;;5004452;28;20048;-84
2023/07/27 14:15:34;;;;;;;4.00;2.30;;;18.70;99.90;;;;;;4981263;28;20045;-85
2023/07/27 14:18:00;;;;;;;2.90;2.25;;;18.50;99.90;;;;;;5004816;28;20041;-86
2023/07/27 14:20:27;;;;;;;3.08;2.28;;;;;;;;;;5018679;28;20135;-86
2023/07/27 14:22:53;;;;;;;1.38;0.95;;;;;;;;;;5001285;28;20129;-84
2023/07/27 14:25:19;;;;;;;3.65;0.90;;;17.20;99.90;;;;;;5000926;28;20056;-85
2023/07/27 14:27:45;;;;;;;1.75;0.70;;;;;;;;;;4995091;28;20040;-84